Time;durP1;ratioP1;P1;durP2;ratioP2;P2;SDS_P1;SDS_P2;PMS_P1;PMS_P2;Temp;Humidity;BMP_temperature;BMP_pressure;BME280_temperature;BME280_humidity;BME280_pressure;Samples;Min_cycle;Max_cycle;Signal;HPM_P1;HPM_P2
2022/01/22 00:07:10;;;;;;;0.20;0.00;;;-2.20;78.90;;;;;;21138909;28;20031;-43
2022/01/22 00:17:13;;;;;;;0.13;0.08;;;-2.30;80.30;;;;;;21138207;28;20047;-43
2022/01/22 00:27:15;;;;;;;0.28;0.00;;;-2.30;79.30;;;;;;21137690;28;20039;-43
2022/01/22 00:37:18;;;;;;;0.20;0.00;;;-2.20;79.60;;;;;;21137045;28;20092;-44
2022/01/22 00:47:21;;;;;;;0.35;0.10;;;-2.40;79.60;;;;;;21136287;28;20032;-43
2022/01/22 00:57:23;;;;;;;0.25;0.08;;;-2.60;80.40;;;;;;21135208;28;20422;-43
2022/01/22 01:07:26;;;;;;;0.03;0.00;;;-2.70;81.20;;;;;;21118134;28;20551;-46
2022/01/22 01:38:14;;;;;;;0.00;0.00;;;-2.50;82.70;;;;;;20710251;28;20046;-47
2022/01/22 01:48:23;;;;;;;0.28;0.00;;;-2.70;83.30;;;;;;20726457;28;20046;-43
2022/01/22 01:58:29;;;;;;;0.03;0.00;;;-2.60;83.60;;;;;;20803141;28;20149;-43
2022/01/22 02:08:33;;;;;;;0.05;0.00;;;-2.40;82.90;;;;;;21035303;28;20547;-44
2022/01/22 02:29:12;;;;;;;0.10;0.00;;;-2.40;82.40;;;;;;21119327;28;20040;-43
2022/01/22 02:39:42;;;;;;;0.00;0.00;;;-2.30;82.70;;;;;;21146033;28;20053;-44
2022/01/22 02:49:48;;;;;;;0.10;0.00;;;-2.30;83.80;;;;;;21129124;28;20035;-44
2022/01/22 02:59:50;;;;;;;0.17;0.00;;;-2.50;84.30;;;;;;21128067;28;20297;-44
2022/01/22 03:10:00;;;;;;;0.10;0.00;;;-2.50;84.60;;;;;;21144402;28;20088;-43
2022/01/22 03:30:17;;;;;;;1.65;0.00;;;-3.00;86.10;;;;;;21142633;28;20113;-45
2022/01/22 03:40:23;;;;;;;0.20;0.00;;;-3.10;86.70;;;;;;21141057;28;20035;-45
2022/01/22 03:50:25;;;;;;;0.73;0.05;;;-3.30;87.90;;;;;;21124195;28;20028;-44
2022/01/22 04:00:28;;;;;;;0.52;0.00;;;-3.60;90.10;;;;;;21140193;28;20031;-44
2022/01/22 04:10:32;;;;;;;0.00;0.00;;;-3.80;91.00;;;;;;21122519;28;20108;-44
2022/01/22 04:30:55;;;;;;;0.68;0.10;;;-4.30;91.90;;;;;;21071473;28;20031;-44
2022/01/22 04:40:59;;;;;;;0.00;0.00;;;-4.40;91.50;;;;;;21070918;28;20028;-44
2022/01/22 05:01:24;;;;;;;0.00;0.00;;;-4.10;91.40;;;;;;21067973;28;20112;-47
2022/01/22 05:11:52;;;;;;;0.40;0.10;;;-4.10;91.90;;;;;;21072219;28;20039;-43
2022/01/22 05:21:59;;;;;;;0.20;0.10;;;-4.00;91.80;;;;;;21117308;28;20036;-43
2022/01/22 05:32:24;;;;;;;0.20;0.00;;;-4.00;92.00;;;;;;21117321;28;20096;-43
2022/01/22 05:42:29;;;;;;;2.17;0.08;;;-3.90;91.60;;;;;;21133056;28;20032;-44
2022/01/22 05:52:40;;;;;;;0.10;0.00;;;-3.90;92.20;;;;;;21133456;28;20047;-45
2022/01/22 06:02:43;;;;;;;0.40;0.10;;;-3.80;92.00;;;;;;21135682;28;20040;-43
2022/01/22 06:13:09;;;;;;;0.60;0.00;;;-3.80;92.00;;;;;;21149738;28;20052;-44
2022/01/22 06:23:10;;;;;;;0.57;0.10;;;-3.90;92.60;;;;;;21147933;28;20096;-43
2022/01/22 06:33:13;;;;;;;0.43;0.00;;;-3.90;92.90;;;;;;21147245;28;20399;-45
2022/01/22 06:43:16;;;;;;;0.00;0.00;;;-3.90;93.10;;;;;;21146487;28;20391;-43
2022/01/22 06:53:40;;;;;;;12.82;0.10;;;-3.80;93.40;;;;;;21061146;28;20024;-44
2022/01/22 07:03:45;;;;;;;0.00;0.00;;;-3.90;93.70;;;;;;21060664;28;20532;-44
2022/01/22 07:14:13;;;;;;;0.17;0.00;;;-3.70;93.30;;;;;;20800960;28;20080;-44
2022/01/22 07:24:23;;;;;;;0.00;0.00;;;-3.20;91.70;;;;;;20801209;28;20050;-44
2022/01/22 07:34:29;;;;;;;0.30;0.00;;;-2.20;90.60;;;;;;20830298;28;20071;-44
2022/01/22 07:44:41;;;;;;;0.00;0.00;;;-2.30;90.50;;;;;;20929918;28;20128;-44
2022/01/22 07:54:45;;;;;;;0.55;0.15;;;-2.20;91.40;;;;;;21140810;28;20035;-44
2022/01/22 08:04:47;;;;;;;0.15;0.00;;;-1.50;90.50;;;;;;21123324;28;20039;-44
2022/01/22 08:15:22;;;;;;;1.75;0.00;;;-0.30;85.20;;;;;;21138918;28;20047;-42
2022/01/22 08:25:29;;;;;;;0.00;0.00;;;1.10;80.60;;;;;;21138155;28;20092;-43
2022/01/22 08:35:55;;;;;;;0.00;0.00;;;2.10;77.00;;;;;;21120527;28;20057;-43
2022/01/22 08:46:02;;;;;;;0.22;0.00;;;2.30;76.30;;;;;;20975721;28;20048;-61
2022/01/22 08:56:08;;;;;;;0.00;0.00;;;2.70;74.00;;;;;;20958748;28;20040;-44
2022/01/22 09:06:12;;;;;;;0.00;0.00;;;3.10;72.60;;;;;;20957584;28;20553;-45
2022/01/22 09:16:24;;;;;;;0.00;0.00;;;3.40;73.70;;;;;;20942880;28;20455;-44
2022/01/22 09:26:28;;;;;;;0.25;0.00;;;3.70;73.30;;;;;;21053300;28;20097;-47
2022/01/22 09:36:32;;;;;;;0.30;0.00;;;4.10;70.90;;;;;;21115919;28;20104;-44
2022/01/22 09:47:07;;;;;;;2.58;0.15;;;4.40;69.90;;;;;;20789234;28;20095;-49
2022/01/22 09:57:22;;;;;;;0.25;0.00;;;4.80;69.30;;;;;;20808697;28;20041;-55
2022/01/22 10:07:33;;;;;;;0.00;0.00;;;4.80;69.50;;;;;;20805513;28;20053;-55
2022/01/22 10:17:56;;;;;;;0.55;0.00;;;4.90;70.20;;;;;;20935535;28;20039;-45
2022/01/22 10:28:02;;;;;;;0.15;0.00;;;4.70;69.30;;;;;;21132117;28;20027;-45
2022/01/22 10:38:05;;;;;;;0.15;0.00;;;4.50;70.00;;;;;;21130544;28;20148;-48
2022/01/22 10:48:17;;;;;;;0.03;0.00;;;5.00;69.70;;;;;;21131563;28;20035;-46
2022/01/22 10:58:19;;;;;;;0.35;0.00;;;5.70;68.10;;;;;;21144870;28;20031;-44
2022/01/22 11:08:22;;;;;;;0.70;0.10;;;5.80;68.20;;;;;;21144259;28;20032;-44
2022/01/22 11:18:26;;;;;;;0.20;0.00;;;6.00;67.10;;;;;;21142927;28;20108;-45
2022/01/22 11:28:30;;;;;;;0.10;0.00;;;6.20;67.70;;;;;;21158123;28;20361;-46
2022/01/22 11:38:38;;;;;;;0.25;0.00;;;6.30;66.10;;;;;;21142752;28;20100;-45
2022/01/22 11:48:41;;;;;;;6.90;0.17;;;6.30;65.50;;;;;;21140900;28;20035;-44
2022/01/22 11:59:19;;;;;;;0.00;0.00;;;5.90;67.00;;;;;;21140388;28;20474;-45
2022/01/22 12:09:26;;;;;;;0.00;0.00;;;5.60;67.60;;;;;;21137799;28;20043;-45
2022/01/22 12:19:50;;;;;;;0.90;0.00;;;5.30;68.80;;;;;;21138856;28;20051;-45
2022/01/22 12:30:00;;;;;;;2.47;0.30;;;5.40;69.40;;;;;;21138124;28;20040;-45
2022/01/22 12:40:06;;;;;;;1.35;0.17;;;5.40;68.90;;;;;;21136839;28;20061;-45
2022/01/22 12:50:09;;;;;;;0.10;0.00;;;5.40;68.80;;;;;;21136390;28;20159;-45
2022/01/22 13:00:15;;;;;;;0.45;0.00;;;5.40;68.90;;;;;;21135182;28;20031;-46
2022/01/22 13:10:22;;;;;;;0.47;0.00;;;5.50;68.50;;;;;;21135119;28;20423;-46
2022/01/22 13:20:31;;;;;;;0.20;0.00;;;5.80;69.00;;;;;;21127393;28;20097;-45
2022/01/22 13:30:41;;;;;;;0.60;0.08;;;5.90;67.90;;;;;;21133433;28;20055;-45
2022/01/22 14:13:33;;;;;;;0.30;0.10;;;4.70;71.20;;;;;;21031937;28;20044;-45
2022/01/22 14:23:38;;;;;;;0.65;0.00;;;4.60;71.10;;;;;;21050529;28;20113;-45
2022/01/22 14:33:42;;;;;;;0.88;0.00;;;4.60;70.50;;;;;;21063651;28;20058;-47
2022/01/22 14:44:38;;;;;;;0.55;0.10;;;4.50;72.10;;;;;;21060162;28;20035;-46
2022/01/22 14:54:21;;;;;;;0.00;0.00;;;4.00;73.10;;;;;;21054241;28;20047;-47
2022/01/22 15:04:24;;;;;;;0.93;0.10;;;4.20;72.60;;;;;;21060841;28;20055;-45
2022/01/22 15:14:30;;;;;;;0.28;0.00;;;4.40;72.50;;;;;;21060495;28;20056;-45
2022/01/22 15:24:33;;;;;;;0.20;0.00;;;4.30;72.50;;;;;;21059275;28;20044;-45
2022/01/22 15:44:38;;;;;;;0.17;0.00;;;3.50;75.30;;;;;;21057870;28;20097;-45
2022/01/22 15:54:43;;;;;;;1.15;0.00;;;3.30;75.60;;;;;;21058445;28;20161;-47
2022/01/22 16:04:49;;;;;;;0.17;0.00;;;3.10;75.60;;;;;;21056264;28;20027;-46
2022/01/22 16:14:55;;;;;;;0.00;0.00;;;2.70;77.50;;;;;;21025645;28;20048;-45
2022/01/22 16:24:59;;;;;;;0.08;0.00;;;2.60;78.00;;;;;;21054201;28;20036;-46
2022/01/22 16:35:02;;;;;;;0.75;0.10;;;2.50;79.10;;;;;;21053983;28;20032;-44
2022/01/22 17:05:40;;;;;;;1.10;0.08;;;2.70;78.90;;;;;;21051688;28;20398;-46
2022/01/22 17:15:43;;;;;;;1.10;0.47;;;2.60;80.20;;;;;;21050814;28;20051;-44
2022/01/22 17:25:47;;;;;;;2.22;0.70;;;2.50;80.30;;;;;;20978315;28;20352;-45
2022/01/22 17:35:53;;;;;;;1.00;0.20;;;2.40;81.40;;;;;;21095730;28;20094;-44
2022/01/22 17:45:57;;;;;;;0.00;0.00;;;2.60;81.70;;;;;;21050080;28;20715;-44
2022/01/22 17:56:00;;;;;;;0.45;0.15;;;2.60;81.70;;;;;;21049363;28;20036;-46
2022/01/22 18:06:06;;;;;;;0.52;0.00;;;2.50;82.20;;;;;;21063845;28;20044;-44
2022/01/22 18:16:10;;;;;;;1.85;0.00;;;2.40;83.20;;;;;;21064820;28;20052;-45
2022/01/22 18:26:19;;;;;;;0.07;0.00;;;2.40;83.70;;;;;;21075082;28;20028;-47
2022/01/22 18:36:26;;;;;;;0.15;0.00;;;2.40;83.80;;;;;;21078080;28;20053;-45
2022/01/22 18:46:34;;;;;;;0.00;0.00;;;2.40;84.00;;;;;;21017979;28;20105;-44
2022/01/22 18:56:44;;;;;;;0.17;0.00;;;2.50;84.20;;;;;;20977297;28;20045;-44
2022/01/22 19:06:47;;;;;;;0.30;0.00;;;2.50;84.00;;;;;;20978398;28;20492;-46
2022/01/22 19:16:50;;;;;;;0.73;0.00;;;2.60;84.10;;;;;;21075891;28;20072;-45
2022/01/22 19:37:15;;;;;;;0.00;0.00;;;2.60;84.70;;;;;;21040431;28;20231;-46
2022/01/22 19:47:18;;;;;;;0.05;0.00;;;2.50;84.50;;;;;;21013857;28;20549;-45
2022/01/22 19:57:21;;;;;;;0.08;0.00;;;2.60;84.70;;;;;;21014006;28;20063;-57
2022/01/22 20:07:29;;;;;;;0.08;0.00;;;2.60;84.90;;;;;;20987792;28;20396;-44
2022/01/22 20:17:31;;;;;;;0.35;0.00;;;2.50;85.40;;;;;;21049280;28;20048;-59
2022/01/22 20:27:37;;;;;;;0.00;0.00;;;2.50;85.20;;;;;;21053084;28;20040;-57
2022/01/22 20:37:41;;;;;;;0.05;0.00;;;2.50;85.70;;;;;;21051865;28;20101;-57
2022/01/22 20:47:53;;;;;;;0.00;0.00;;;2.60;85.20;;;;;;21049850;28;20028;-54
2022/01/22 20:57:57;;;;;;;0.00;0.00;;;2.70;85.10;;;;;;21050705;28;20032;-51
2022/01/22 21:08:02;;;;;;;0.00;0.00;;;3.10;84.00;;;;;;21050217;28;20074;-54
2022/01/22 21:18:05;;;;;;;0.10;0.00;;;3.10;85.10;;;;;;21033472;28;20040;-59
2022/01/22 21:28:09;;;;;;;0.00;0.00;;;3.10;84.70;;;;;;21045592;28;20109;-44
2022/01/22 21:48:16;;;;;;;0.00;0.00;;;3.10;85.40;;;;;;20964738;28;20049;-44
2022/01/22 21:58:18;;;;;;;0.03;0.00;;;3.40;85.30;;;;;;20981854;28;20036;-43
2022/01/22 22:08:22;;;;;;;0.00;0.00;;;3.20;85.80;;;;;;20967656;28;20059;-44
2022/01/22 22:18:28;;;;;;;0.00;0.00;;;3.10;86.10;;;;;;21123090;28;20052;-43
2022/01/22 22:28:39;;;;;;;0.00;0.00;;;3.10;86.30;;;;;;21146091;28;20132;-45
2022/01/22 22:38:42;;;;;;;0.73;0.00;;;3.20;86.00;;;;;;21130722;28;20483;-43
2022/01/22 22:48:45;;;;;;;0.00;0.00;;;3.20;86.70;;;;;;21138646;28;20101;-44
2022/01/22 22:58:51;;;;;;;2.13;0.00;;;3.30;86.60;;;;;;21145074;28;20039;-42
2022/01/22 23:08:54;;;;;;;0.30;0.03;;;3.30;86.40;;;;;;21127319;28;20036;-44
2022/01/22 23:29:19;;;;;;;1.55;0.05;;;3.20;87.10;;;;;;21142725;28;20027;-43
